sensor_id;sensor_type;location;lat;lon;timestamp;temperature;humidity
51878;SHT31;37911;51.526;11.536;2023-07-20T00:01:19;16.77;83.16
51878;SHT31;37911;51.526;11.536;2023-07-20T00:04:23;16.79;83.77
51878;SHT31;37911;51.526;11.536;2023-07-20T00:07:26;16.77;83.44
51878;SHT31;37911;51.526;11.536;2023-07-20T00:10:30;16.87;83.00
51878;SHT31;37911;51.526;11.536;2023-07-20T00:13:36;16.79;83.00
51878;SHT31;37911;51.526;11.536;2023-07-20T00:16:39;16.84;83.22
51878;SHT31;37911;51.526;11.536;2023-07-20T00:19:42;16.81;83.54
51878;SHT31;37911;51.526;11.536;2023-07-20T00:22:46;16.86;83.72
51878;SHT31;37911;51.526;11.536;2023-07-20T00:25:51;16.84;83.67
51878;SHT31;37911;51.526;11.536;2023-07-20T00:28:57;16.81;84.11
51878;SHT31;37911;51.526;11.536;2023-07-20T00:32:00;16.76;84.37
51878;SHT31;37911;51.526;11.536;2023-07-20T00:35:06;16.86;84.04
51878;SHT31;37911;51.526;11.536;2023-07-20T00:38:10;16.79;84.21
51878;SHT31;37911;51.526;11.536;2023-07-20T00:41:13;16.72;84.58
51878;SHT31;37911;51.526;11.536;2023-07-20T00:44:20;16.67;84.92
51878;SHT31;37911;51.526;11.536;2023-07-20T00:47:23;16.75;84.22
51878;SHT31;37911;51.526;11.536;2023-07-20T00:50:28;16.72;84.29
51878;SHT31;37911;51.526;11.536;2023-07-20T00:53:31;16.79;84.06
51878;SHT31;37911;51.526;11.536;2023-07-20T00:56:35;16.77;84.48
51878;SHT31;37911;51.526;11.536;2023-07-20T00:59:42;16.81;84.33
51878;SHT31;37911;51.526;11.536;2023-07-20T01:02:46;16.77;84.23
51878;SHT31;37911;51.526;11.536;2023-07-20T01:05:54;16.70;84.77
51878;SHT31;37911;51.526;11.536;2023-07-20T01:09:07;16.77;83.96
51878;SHT31;37911;51.526;11.536;2023-07-20T01:12:14;16.79;84.27
51878;SHT31;37911;51.526;11.536;2023-07-20T01:15:24;16.77;84.61
51878;SHT31;37911;51.526;11.536;2023-07-20T01:18:28;16.80;84.23
51878;SHT31;37911;51.526;11.536;2023-07-20T01:21:37;16.76;85.15
51878;SHT31;37911;51.526;11.536;2023-07-20T01:24:56;16.66;85.36
51878;SHT31;37911;51.526;11.536;2023-07-20T01:31:40;16.83;84.73
51878;SHT31;37911;51.526;11.536;2023-07-20T01:34:46;16.81;84.91
51878;SHT31;37911;51.526;11.536;2023-07-20T01:37:51;16.79;84.65
51878;SHT31;37911;51.526;11.536;2023-07-20T01:40:55;16.77;84.97
51878;SHT31;37911;51.526;11.536;2023-07-20T01:43:59;16.76;85.36
51878;SHT31;37911;51.526;11.536;2023-07-20T01:47:05;16.69;85.15
51878;SHT31;37911;51.526;11.536;2023-07-20T01:50:09;16.69;85.12
51878;SHT31;37911;51.526;11.536;2023-07-20T01:53:13;16.72;84.59
51878;SHT31;37911;51.526;11.536;2023-07-20T01:56:17;16.73;84.30
51878;SHT31;37911;51.526;11.536;2023-07-20T01:59:20;16.69;85.14
51878;SHT31;37911;51.526;11.536;2023-07-20T02:02:27;16.73;85.12
51878;SHT31;37911;51.526;11.536;2023-07-20T02:05:30;16.72;85.35
51878;SHT31;37911;51.526;11.536;2023-07-20T02:08:34;16.72;85.40
51878;SHT31;37911;51.526;11.536;2023-07-20T02:11:37;16.69;85.37
51878;SHT31;37911;51.526;11.536;2023-07-20T02:14:41;16.76;85.07
51878;SHT31;37911;51.526;11.536;2023-07-20T02:17:47;16.77;85.12
51878;SHT31;37911;51.526;11.536;2023-07-20T02:20:52;16.73;85.09
51878;SHT31;37911;51.526;11.536;2023-07-20T02:23:56;16.57;85.48
51878;SHT31;37911;51.526;11.536;2023-07-20T02:27:00;16.60;85.45
51878;SHT31;37911;51.526;11.536;2023-07-20T02:30:04;16.62;85.79
51878;SHT31;37911;51.526;11.536;2023-07-20T02:33:11;16.66;85.69
51878;SHT31;37911;51.526;11.536;2023-07-20T02:36:14;16.70;85.59
51878;SHT31;37911;51.526;11.536;2023-07-20T02:39:18;16.67;85.16
51878;SHT31;37911;51.526;11.536;2023-07-20T02:42:22;16.62;85.90
51878;SHT31;37911;51.526;11.536;2023-07-20T02:45:26;16.62;85.93
51878;SHT31;37911;51.526;11.536;2023-07-20T02:48:32;16.60;85.13
51878;SHT31;37911;51.526;11.536;2023-07-20T02:51:36;16.66;85.08
51878;SHT31;37911;51.526;11.536;2023-07-20T02:54:39;16.63;85.02
51878;SHT31;37911;51.526;11.536;2023-07-20T02:57:43;16.66;85.06
51878;SHT31;37911;51.526;11.536;2023-07-20T03:00:46;16.66;85.08
51878;SHT31;37911;51.526;11.536;2023-07-20T03:03:52;16.52;85.66
51878;SHT31;37911;51.526;11.536;2023-07-20T03:06:56;16.33;86.57
51878;SHT31;37911;51.526;11.536;2023-07-20T03:10:00;16.49;86.55
51878;SHT31;37911;51.526;11.536;2023-07-20T03:13:04;16.53;86.43
51878;SHT31;37911;51.526;11.536;2023-07-20T03:16:08;16.53;85.74
51878;SHT31;37911;51.526;11.536;2023-07-20T03:19:15;16.57;85.90
51878;SHT31;37911;51.526;11.536;2023-07-20T03:22:19;16.60;85.63
51878;SHT31;37911;51.526;11.536;2023-07-20T03:25:22;16.62;85.72
51878;SHT31;37911;51.526;11.536;2023-07-20T03:28:26;16.59;85.42
51878;SHT31;37911;51.526;11.536;2023-07-20T03:31:29;16.60;85.17
51878;SHT31;37911;51.526;11.536;2023-07-20T03:34:36;16.65;84.77
51878;SHT31;37911;51.526;11.536;2023-07-20T03:37:39;16.62;85.12
51878;SHT31;37911;51.526;11.536;2023-07-20T03:40:49;16.63;85.31
51878;SHT31;37911;51.526;11.536;2023-07-20T03:43:53;16.57;85.45
51878;SHT31;37911;51.526;11.536;2023-07-20T03:46:56;16.62;85.34
51878;SHT31;37911;51.526;11.536;2023-07-20T03:50:03;16.41;85.10
51878;SHT31;37911;51.526;11.536;2023-07-20T03:53:07;16.42;85.44
51878;SHT31;37911;51.526;11.536;2023-07-20T03:56:10;16.45;85.46
51878;SHT31;37911;51.526;11.536;2023-07-20T03:59:14;16.43;85.01
51878;SHT31;37911;51.526;11.536;2023-07-20T04:02:17;16.45;85.00
51878;SHT31;37911;51.526;11.536;2023-07-20T04:05:23;16.45;85.87
51878;SHT31;37911;51.526;11.536;2023-07-20T04:08:27;16.45;85.93
51878;SHT31;37911;51.526;11.536;2023-07-20T04:11:30;16.51;86.05
51878;SHT31;37911;51.526;11.536;2023-07-20T04:14:34;16.59;86.17
51878;SHT31;37911;51.526;11.536;2023-07-20T04:17:37;16.63;86.08
51878;SHT31;37911;51.526;11.536;2023-07-20T04:20:43;16.57;86.34
51878;SHT31;37911;51.526;11.536;2023-07-20T04:23:47;16.63;86.13
51878;SHT31;37911;51.526;11.536;2023-07-20T04:26:51;16.63;86.52
51878;SHT31;37911;51.526;11.536;2023-07-20T04:29:54;16.60;86.40
51878;SHT31;37911;51.526;11.536;2023-07-20T04:32:58;16.59;85.89
51878;SHT31;37911;51.526;11.536;2023-07-20T04:36:04;16.75;85.69
51878;SHT31;37911;51.526;11.536;2023-07-20T04:39:10;16.86;85.62
51878;SHT31;37911;51.526;11.536;2023-07-20T04:42:17;16.80;85.56
51878;SHT31;37911;51.526;11.536;2023-07-20T04:45:21;16.72;86.16
51878;SHT31;37911;51.526;11.536;2023-07-20T04:48:26;16.75;86.47
51878;SHT31;37911;51.526;11.536;2023-07-20T04:51:33;16.75;86.41
51878;SHT31;37911;51.526;11.536;2023-07-20T04:54:37;16.76;86.31
51878;SHT31;37911;51.526;11.536;2023-07-20T04:57:41;16.83;85.64
51878;SHT31;37911;51.526;11.536;2023-07-20T05:00:44;16.93;84.98
51878;SHT31;37911;51.526;11.536;2023-07-20T05:03:48;16.93;85.68
51878;SHT31;37911;51.526;11.536;2023-07-20T05:06:54;16.87;85.45
51878;SHT31;37911;51.526;11.536;2023-07-20T05:09:58;16.94;85.24
51878;SHT31;37911;51.526;11.536;2023-07-20T05:13:02;17.07;84.23
51878;SHT31;37911;51.526;11.536;2023-07-20T05:16:06;17.13;84.03
51878;SHT31;37911;51.526;11.536;2023-07-20T05:19:09;17.18;83.55
51878;SHT31;37911;51.526;11.536;2023-07-20T05:22:16;17.30;83.90
51878;SHT31;37911;51.526;11.536;2023-07-20T05:25:20;17.40;83.90
51878;SHT31;37911;51.526;11.536;2023-07-20T05:28:23;17.45;82.57
51878;SHT31;37911;51.526;11.536;2023-07-20T05:31:27;17.45;81.65
51878;SHT31;37911;51.526;11.536;2023-07-20T05:34:32;17.42;82.39
51878;SHT31;37911;51.526;11.536;2023-07-20T05:37:38;17.32;82.64
51878;SHT31;37911;51.526;11.536;2023-07-20T05:40:42;17.28;83.25
51878;SHT31;37911;51.526;11.536;2023-07-20T05:43:45;17.23;84.20
51878;SHT31;37911;51.526;11.536;2023-07-20T05:46:49;17.31;83.65
51878;SHT31;37911;51.526;11.536;2023-07-20T05:49:52;17.42;83.61
51878;SHT31;37911;51.526;11.536;2023-07-20T05:52:58;17.48;82.50
51878;SHT31;37911;51.526;11.536;2023-07-20T05:56:02;17.60;82.01
51878;SHT31;37911;51.526;11.536;2023-07-20T05:59:06;17.54;81.26
51878;SHT31;37911;51.526;11.536;2023-07-20T06:02:09;17.57;81.78
51878;SHT31;37911;51.526;11.536;2023-07-20T06:05:14;17.58;82.13
51878;SHT31;37911;51.526;11.536;2023-07-20T06:08:19;17.78;82.01
51878;SHT31;37911;51.526;11.536;2023-07-20T06:11:23;17.79;82.24
51878;SHT31;37911;51.526;11.536;2023-07-20T06:14:26;17.91;80.99
51878;SHT31;37911;51.526;11.536;2023-07-20T06:17:30;17.86;81.08
51878;SHT31;37911;51.526;11.536;2023-07-20T06:20:33;17.82;81.44
51878;SHT31;37911;51.526;11.536;2023-07-20T06:23:40;17.85;80.44
51878;SHT31;37911;51.526;11.536;2023-07-20T06:26:44;18.01;80.42
51878;SHT31;37911;51.526;11.536;2023-07-20T06:29:47;18.13;80.75
51878;SHT31;37911;51.526;11.536;2023-07-20T06:32:51;18.17;80.00
51878;SHT31;37911;51.526;11.536;2023-07-20T06:35:55;18.30;80.28
51878;SHT31;37911;51.526;11.536;2023-07-20T06:39:01;18.32;78.77
51878;SHT31;37911;51.526;11.536;2023-07-20T06:42:05;18.33;79.14
51878;SHT31;37911;51.526;11.536;2023-07-20T06:45:09;18.44;78.65
51878;SHT31;37911;51.526;11.536;2023-07-20T06:48:13;18.47;77.70
51878;SHT31;37911;51.526;11.536;2023-07-20T06:51:17;18.42;77.20
51878;SHT31;37911;51.526;11.536;2023-07-20T06:54:24;18.44;77.60
51878;SHT31;37911;51.526;11.536;2023-07-20T06:57:27;18.34;77.53
51878;SHT31;37911;51.526;11.536;2023-07-20T07:00:31;18.14;80.02
51878;SHT31;37911;51.526;11.536;2023-07-20T07:03:34;18.14;79.92
51878;SHT31;37911;51.526;11.536;2023-07-20T07:06:38;17.98;79.56
51878;SHT31;37911;51.526;11.536;2023-07-20T07:09:44;17.88;80.30
51878;SHT31;37911;51.526;11.536;2023-07-20T07:12:47;18.02;80.39
51878;SHT31;37911;51.526;11.536;2023-07-20T07:15:51;18.12;79.47
51878;SHT31;37911;51.526;11.536;2023-07-20T07:18:55;18.22;78.99
51878;SHT31;37911;51.526;11.536;2023-07-20T07:21:58;18.17;79.18
51878;SHT31;37911;51.526;11.536;2023-07-20T07:25:05;18.09;80.06
51878;SHT31;37911;51.526;11.536;2023-07-20T07:28:09;18.22;79.80
51878;SHT31;37911;51.526;11.536;2023-07-20T07:31:13;18.26;79.51
51878;SHT31;37911;51.526;11.536;2023-07-20T07:34:17;18.36;79.09
51878;SHT31;37911;51.526;11.536;2023-07-20T07:37:20;18.57;79.00
51878;SHT31;37911;51.526;11.536;2023-07-20T07:40:27;18.90;78.08
51878;SHT31;37911;51.526;11.536;2023-07-20T07:43:30;19.34;77.22
51878;SHT31;37911;51.526;11.536;2023-07-20T07:46:35;20.12;73.96
51878;SHT31;37911;51.526;11.536;2023-07-20T07:49:39;20.12;73.95
51878;SHT31;37911;51.526;11.536;2023-07-20T07:52:42;20.19;73.58
51878;SHT31;37911;51.526;11.536;2023-07-20T07:55:50;20.45;73.56
51878;SHT31;37911;51.526;11.536;2023-07-20T07:58:54;21.27;69.43
51878;SHT31;37911;51.526;11.536;2023-07-20T08:01:57;21.55;65.08
51878;SHT31;37911;51.526;11.536;2023-07-20T08:05:00;21.18;64.27
51878;SHT31;37911;51.526;11.536;2023-07-20T08:08:04;21.02;66.92
51878;SHT31;37911;51.526;11.536;2023-07-20T08:11:11;20.74;68.66
51878;SHT31;37911;51.526;11.536;2023-07-20T08:14:15;20.48;69.82
51878;SHT31;37911;51.526;11.536;2023-07-20T08:17:19;20.34;69.54
51878;SHT31;37911;51.526;11.536;2023-07-20T08:20:23;20.23;70.18
51878;SHT31;37911;51.526;11.536;2023-07-20T08:23:27;20.24;70.86
51878;SHT31;37911;51.526;11.536;2023-07-20T08:26:33;20.32;72.32
51878;SHT31;37911;51.526;11.536;2023-07-20T08:29:36;20.26;72.00
51878;SHT31;37911;51.526;11.536;2023-07-20T08:32:40;19.93;73.42
51878;SHT31;37911;51.526;11.536;2023-07-20T08:35:44;19.97;74.10
51878;SHT31;37911;51.526;11.536;2023-07-20T08:38:48;19.90;75.33
51878;SHT31;37911;51.526;11.536;2023-07-20T08:41:55;19.94;75.01
51878;SHT31;37911;51.526;11.536;2023-07-20T08:44:59;19.87;75.38
51878;SHT31;37911;51.526;11.536;2023-07-20T08:48:05;19.87;76.62
51878;SHT31;37911;51.526;11.536;2023-07-20T08:51:10;19.87;76.91
51878;SHT31;37911;51.526;11.536;2023-07-20T08:54:14;19.72;77.22
51878;SHT31;37911;51.526;11.536;2023-07-20T08:57:21;19.48;77.96
51878;SHT31;37911;51.526;11.536;2023-07-20T09:00:26;19.31;77.42
51878;SHT31;37911;51.526;11.536;2023-07-20T09:03:30;19.06;78.62
51878;SHT31;37911;51.526;11.536;2023-07-20T09:06:35;18.61;76.31
51878;SHT31;37911;51.526;11.536;2023-07-20T09:09:40;18.32;76.68
51878;SHT31;37911;51.526;11.536;2023-07-20T09:12:47;18.03;77.39
51878;SHT31;37911;51.526;11.536;2023-07-20T09:15:53;17.81;77.76
51878;SHT31;37911;51.526;11.536;2023-07-20T09:18:58;17.83;78.20
51878;SHT31;37911;51.526;11.536;2023-07-20T09:22:01;18.10;77.62
51878;SHT31;37911;51.526;11.536;2023-07-20T09:25:06;18.34;79.00
51878;SHT31;37911;51.526;11.536;2023-07-20T09:28:13;18.42;78.72
51878;SHT31;37911;51.526;11.536;2023-07-20T09:31:17;18.60;78.49
51878;SHT31;37911;51.526;11.536;2023-07-20T09:34:21;18.98;77.89
51878;SHT31;37911;51.526;11.536;2023-07-20T09:37:24;19.82;76.71
51878;SHT31;37911;51.526;11.536;2023-07-20T09:40:28;20.03;75.58
51878;SHT31;37911;51.526;11.536;2023-07-20T09:43:35;20.19;73.79
51878;SHT31;37911;51.526;11.536;2023-07-20T09:46:41;21.12;73.41
51878;SHT31;37911;51.526;11.536;2023-07-20T09:49:45;21.34;70.10
51878;SHT31;37911;51.526;11.536;2023-07-20T09:52:48;21.11;69.61
51878;SHT31;37911;51.526;11.536;2023-07-20T09:55:53;20.78;69.11
51878;SHT31;37911;51.526;11.536;2023-07-20T09:58:59;20.53;70.71
51878;SHT31;37911;51.526;11.536;2023-07-20T10:02:07;20.63;70.55
51878;SHT31;37911;51.526;11.536;2023-07-20T10:05:15;21.29;71.14
51878;SHT31;37911;51.526;11.536;2023-07-20T10:08:24;21.29;69.01
51878;SHT31;37911;51.526;11.536;2023-07-20T10:11:30;21.31;67.83
51878;SHT31;37911;51.526;11.536;2023-07-20T10:14:41;21.49;68.20
51878;SHT31;37911;51.526;11.536;2023-07-20T10:17:52;21.60;67.91
51878;SHT31;37911;51.526;11.536;2023-07-20T10:20:57;22.07;66.58
51878;SHT31;37911;51.526;11.536;2023-07-20T10:24:03;22.07;65.60
51878;SHT31;37911;51.526;11.536;2023-07-20T10:27:07;21.80;65.44
51878;SHT31;37911;51.526;11.536;2023-07-20T10:30:14;21.62;65.80
51878;SHT31;37911;51.526;11.536;2023-07-20T10:33:18;21.46;66.35
51878;SHT31;37911;51.526;11.536;2023-07-20T10:36:25;21.39;64.76
51878;SHT31;37911;51.526;11.536;2023-07-20T10:39:31;21.46;65.02
51878;SHT31;37911;51.526;11.536;2023-07-20T10:42:35;21.55;64.45
51878;SHT31;37911;51.526;11.536;2023-07-20T10:45:49;21.55;63.81
51878;SHT31;37911;51.526;11.536;2023-07-20T10:48:59;21.41;63.95
51878;SHT31;37911;51.526;11.536;2023-07-20T10:52:06;21.18;64.06
51878;SHT31;37911;51.526;11.536;2023-07-20T10:55:14;20.99;66.37
51878;SHT31;37911;51.526;11.536;2023-07-20T10:58:18;21.12;64.11
51878;SHT31;37911;51.526;11.536;2023-07-20T11:01:35;21.17;65.75
51878;SHT31;37911;51.526;11.536;2023-07-20T11:04:41;21.12;65.38
51878;SHT31;37911;51.526;11.536;2023-07-20T11:07:45;21.11;68.69
51878;SHT31;37911;51.526;11.536;2023-07-20T11:11:23;20.97;67.36
51878;SHT31;37911;51.526;11.536;2023-07-20T11:14:27;20.92;67.71
51878;SHT31;37911;51.526;11.536;2023-07-20T11:17:37;20.80;67.72
51878;SHT31;37911;51.526;11.536;2023-07-20T11:20:41;20.80;68.70
51878;SHT31;37911;51.526;11.536;2023-07-20T11:23:47;20.61;69.40
51878;SHT31;37911;51.526;11.536;2023-07-20T11:26:52;20.51;68.74
51878;SHT31;37911;51.526;11.536;2023-07-20T11:29:56;20.44;70.10
51878;SHT31;37911;51.526;11.536;2023-07-20T11:33:02;20.58;70.65
51878;SHT31;37911;51.526;11.536;2023-07-20T11:36:06;20.87;68.49
51878;SHT31;37911;51.526;11.536;2023-07-20T11:39:12;21.08;69.67
51878;SHT31;37911;51.526;11.536;2023-07-20T11:42:19;21.15;67.79
51878;SHT31;37911;51.526;11.536;2023-07-20T11:45:22;21.31;67.80
51878;SHT31;37911;51.526;11.536;2023-07-20T11:48:30;21.88;64.07
51878;SHT31;37911;51.526;11.536;2023-07-20T11:51:34;22.14;64.87
51878;SHT31;37911;51.526;11.536;2023-07-20T11:54:39;22.25;63.77
51878;SHT31;37911;51.526;11.536;2023-07-20T11:58:01;22.36;63.14
51878;SHT31;37911;51.526;11.536;2023-07-20T12:01:05;22.30;60.91
51878;SHT31;37911;51.526;11.536;2023-07-20T12:04:11;22.85;59.80
51878;SHT31;37911;51.526;11.536;2023-07-20T12:07:14;22.31;60.64
51878;SHT31;37911;51.526;11.536;2023-07-20T12:10:24;22.48;61.71
51878;SHT31;37911;51.526;11.536;2023-07-20T12:13:38;22.54;59.71
51878;SHT31;37911;51.526;11.536;2023-07-20T12:16:43;22.61;57.69
51878;SHT31;37911;51.526;11.536;2023-07-20T12:19:49;22.71;56.57
51878;SHT31;37911;51.526;11.536;2023-07-20T12:22:56;22.65;55.58
51878;SHT31;37911;51.526;11.536;2023-07-20T12:26:00;22.44;58.40
51878;SHT31;37911;51.526;11.536;2023-07-20T12:29:04;22.31;57.81
51878;SHT31;37911;51.526;11.536;2023-07-20T12:32:08;22.25;55.09
51878;SHT31;37911;51.526;11.536;2023-07-20T12:35:14;22.51;54.41
51878;SHT31;37911;51.526;11.536;2023-07-20T12:38:19;22.71;54.04
51878;SHT31;37911;51.526;11.536;2023-07-20T12:41:23;22.96;53.63
51878;SHT31;37911;51.526;11.536;2023-07-20T12:44:27;23.04;53.07
51878;SHT31;37911;51.526;11.536;2023-07-20T12:47:30;23.36;51.29
51878;SHT31;37911;51.526;11.536;2023-07-20T12:50:36;23.26;51.07
51878;SHT31;37911;51.526;11.536;2023-07-20T12:53:40;23.22;50.24
51878;SHT31;37911;51.526;11.536;2023-07-20T12:56:43;23.62;51.03
51878;SHT31;37911;51.526;11.536;2023-07-20T12:59:47;24.25;50.15
51878;SHT31;37911;51.526;11.536;2023-07-20T13:02:50;24.17;48.32
51878;SHT31;37911;51.526;11.536;2023-07-20T13:05:56;23.60;48.18
51878;SHT31;37911;51.526;11.536;2023-07-20T13:09:00;23.57;48.68
51878;SHT31;37911;51.526;11.536;2023-07-20T13:12:05;23.71;48.01
51878;SHT31;37911;51.526;11.536;2023-07-20T13:15:10;23.56;48.05
51878;SHT31;37911;51.526;11.536;2023-07-20T13:18:14;23.43;47.31
51878;SHT31;37911;51.526;11.536;2023-07-20T13:21:22;23.04;48.12
51878;SHT31;37911;51.526;11.536;2023-07-20T13:24:26;23.09;48.48
51878;SHT31;37911;51.526;11.536;2023-07-20T13:27:30;22.90;48.69
51878;SHT31;37911;51.526;11.536;2023-07-20T13:30:34;22.85;49.80
51878;SHT31;37911;51.526;11.536;2023-07-20T13:33:38;23.59;48.68
51878;SHT31;37911;51.526;11.536;2023-07-20T13:36:44;24.18;47.43
51878;SHT31;37911;51.526;11.536;2023-07-20T13:39:52;23.99;46.72
51878;SHT31;37911;51.526;11.536;2023-07-20T13:42:55;23.81;46.04
51878;SHT31;37911;51.526;11.536;2023-07-20T13:45:59;23.65;46.25
51878;SHT31;37911;51.526;11.536;2023-07-20T13:49:03;23.83;44.49
51878;SHT31;37911;51.526;11.536;2023-07-20T13:52:09;24.27;46.51
51878;SHT31;37911;51.526;11.536;2023-07-20T13:55:13;24.69;42.64
51878;SHT31;37911;51.526;11.536;2023-07-20T13:58:16;24.82;43.53
51878;SHT31;37911;51.526;11.536;2023-07-20T14:01:20;24.61;43.29
51878;SHT31;37911;51.526;11.536;2023-07-20T14:04:27;24.69;43.64
51878;SHT31;37911;51.526;11.536;2023-07-20T14:07:35;24.82;43.04
51878;SHT31;37911;51.526;11.536;2023-07-20T14:10:40;24.65;42.28
51878;SHT31;37911;51.526;11.536;2023-07-20T14:13:45;24.71;41.04
51878;SHT31;37911;51.526;11.536;2023-07-20T14:16:50;24.48;41.77
51878;SHT31;37911;51.526;11.536;2023-07-20T14:19:53;24.64;41.11
51878;SHT31;37911;51.526;11.536;2023-07-20T14:22:59;24.92;39.04
51878;SHT31;37911;51.526;11.536;2023-07-20T14:26:03;25.42;38.70
51878;SHT31;37911;51.526;11.536;2023-07-20T14:29:08;25.67;37.72
51878;SHT31;37911;51.526;11.536;2023-07-20T14:32:11;25.56;37.73
51878;SHT31;37911;51.526;11.536;2023-07-20T14:35:15;25.30;37.74
51878;SHT31;37911;51.526;11.536;2023-07-20T14:38:21;25.12;38.56
51878;SHT31;37911;51.526;11.536;2023-07-20T14:41:24;24.68;38.24
51878;SHT31;37911;51.526;11.536;2023-07-20T14:44:28;24.82;39.06
51878;SHT31;37911;51.526;11.536;2023-07-20T14:47:31;25.04;37.12
51878;SHT31;37911;51.526;11.536;2023-07-20T14:50:35;25.01;37.08
51878;SHT31;37911;51.526;11.536;2023-07-20T14:53:41;25.02;36.11
51878;SHT31;37911;51.526;11.536;2023-07-20T14:56:49;24.65;37.74
51878;SHT31;37911;51.526;11.536;2023-07-20T14:59:54;24.40;38.65
51878;SHT31;37911;51.526;11.536;2023-07-20T15:02:58;24.54;38.98
51878;SHT31;37911;51.526;11.536;2023-07-20T15:06:02;24.40;38.27
51878;SHT31;37911;51.526;11.536;2023-07-20T15:09:08;24.65;37.27
51878;SHT31;37911;51.526;11.536;2023-07-20T15:12:12;24.95;37.53
51878;SHT31;37911;51.526;11.536;2023-07-20T15:15:16;24.92;36.57
51878;SHT31;37911;51.526;11.536;2023-07-20T15:18:19;25.11;37.54
51878;SHT31;37911;51.526;11.536;2023-07-20T15:21:23;24.84;36.89
51878;SHT31;37911;51.526;11.536;2023-07-20T15:24:34;24.67;38.23
51878;SHT31;37911;51.526;11.536;2023-07-20T15:27:37;24.61;36.44
51878;SHT31;37911;51.526;11.536;2023-07-20T15:30:41;24.54;37.01
51878;SHT31;37911;51.526;11.536;2023-07-20T15:33:45;24.37;37.63
51878;SHT31;37911;51.526;11.536;2023-07-20T15:36:48;24.57;37.53
51878;SHT31;37911;51.526;11.536;2023-07-20T15:39:55;24.67;36.57
51878;SHT31;37911;51.526;11.536;2023-07-20T15:42:58;24.74;36.88
51878;SHT31;37911;51.526;11.536;2023-07-20T15:46:10;24.58;37.31
51878;SHT31;37911;51.526;11.536;2023-07-20T15:49:28;24.48;36.71
51878;SHT31;37911;51.526;11.536;2023-07-20T15:52:32;24.18;39.11
51878;SHT31;37911;51.526;11.536;2023-07-20T15:55:38;24.06;38.78
51878;SHT31;37911;51.526;11.536;2023-07-20T15:58:41;24.04;38.59
51878;SHT31;37911;51.526;11.536;2023-07-20T16:01:45;24.10;39.37
51878;SHT31;37911;51.526;11.536;2023-07-20T16:04:48;24.35;38.69
51878;SHT31;37911;51.526;11.536;2023-07-20T16:07:52;24.32;38.49
51878;SHT31;37911;51.526;11.536;2023-07-20T16:10:58;24.44;38.39
51878;SHT31;37911;51.526;11.536;2023-07-20T16:14:05;24.52;38.59
51878;SHT31;37911;51.526;11.536;2023-07-20T16:17:09;24.45;37.52
51878;SHT31;37911;51.526;11.536;2023-07-20T16:20:13;24.34;38.30
51878;SHT31;37911;51.526;11.536;2023-07-20T16:23:16;24.42;37.96
51878;SHT31;37911;51.526;11.536;2023-07-20T16:26:22;24.20;38.47
51878;SHT31;37911;51.526;11.536;2023-07-20T16:29:26;23.86;38.13
51878;SHT31;37911;51.526;11.536;2023-07-20T16:32:29;24.04;38.90
51878;SHT31;37911;51.526;11.536;2023-07-20T16:35:36;24.07;39.95
51878;SHT31;37911;51.526;11.536;2023-07-20T16:38:40;24.06;38.23
51878;SHT31;37911;51.526;11.536;2023-07-20T16:41:46;23.99;39.00
51878;SHT31;37911;51.526;11.536;2023-07-20T16:44:50;24.13;38.10
51878;SHT31;37911;51.526;11.536;2023-07-20T16:47:53;24.14;38.29
51878;SHT31;37911;51.526;11.536;2023-07-20T16:50:57;23.99;38.25
51878;SHT31;37911;51.526;11.536;2023-07-20T16:54:01;23.79;39.14
51878;SHT31;37911;51.526;11.536;2023-07-20T16:57:10;23.66;38.89
51878;SHT31;37911;51.526;11.536;2023-07-20T17:00:15;23.32;40.29
51878;SHT31;37911;51.526;11.536;2023-07-20T17:03:18;23.08;42.10
51878;SHT31;37911;51.526;11.536;2023-07-20T17:06:22;22.96;42.71
51878;SHT31;37911;51.526;11.536;2023-07-20T17:09:25;22.79;43.76
51878;SHT31;37911;51.526;11.536;2023-07-20T17:12:36;22.74;44.78
51878;SHT31;37911;51.526;11.536;2023-07-20T17:15:40;22.63;44.26
51878;SHT31;37911;51.526;11.536;2023-07-20T17:18:43;22.63;45.21
51878;SHT31;37911;51.526;11.536;2023-07-20T17:21:47;22.54;45.06
51878;SHT31;37911;51.526;11.536;2023-07-20T17:24:50;22.55;45.55
51878;SHT31;37911;51.526;11.536;2023-07-20T17:27:56;22.47;46.55
51878;SHT31;37911;51.526;11.536;2023-07-20T17:31:00;22.37;46.05
51878;SHT31;37911;51.526;11.536;2023-07-20T17:34:03;22.34;46.02
51878;SHT31;37911;51.526;11.536;2023-07-20T17:37:07;22.21;46.63
51878;SHT31;37911;51.526;11.536;2023-07-20T17:40:11;22.21;47.31
51878;SHT31;37911;51.526;11.536;2023-07-20T17:43:18;22.13;46.66
51878;SHT31;37911;51.526;11.536;2023-07-20T17:46:21;22.17;47.93
51878;SHT31;37911;51.526;11.536;2023-07-20T17:49:25;22.13;47.21
51878;SHT31;37911;51.526;11.536;2023-07-20T17:52:28;22.01;45.11
51878;SHT31;37911;51.526;11.536;2023-07-20T17:55:32;21.97;45.43
51878;SHT31;37911;51.526;11.536;2023-07-20T17:58:38;21.89;44.91
51878;SHT31;37911;51.526;11.536;2023-07-20T18:01:41;21.88;44.41
51878;SHT31;37911;51.526;11.536;2023-07-20T18:04:45;21.83;45.25
51878;SHT31;37911;51.526;11.536;2023-07-20T18:07:48;21.69;44.44
51878;SHT31;37911;51.526;11.536;2023-07-20T18:10:52;21.63;44.71
51878;SHT31;37911;51.526;11.536;2023-07-20T18:13:58;21.60;45.33
51878;SHT31;37911;51.526;11.536;2023-07-20T18:17:03;21.53;44.92
51878;SHT31;37911;51.526;11.536;2023-07-20T18:20:09;21.43;44.78
51878;SHT31;37911;51.526;11.536;2023-07-20T18:23:12;21.34;45.23
51878;SHT31;37911;51.526;11.536;2023-07-20T18:26:16;21.22;46.24
51878;SHT31;37911;51.526;11.536;2023-07-20T18:29:22;21.12;47.75
51878;SHT31;37911;51.526;11.536;2023-07-20T18:32:26;21.02;48.93
51878;SHT31;37911;51.526;11.536;2023-07-20T18:35:29;20.84;48.81
51878;SHT31;37911;51.526;11.536;2023-07-20T18:38:34;20.80;48.43
51878;SHT31;37911;51.526;11.536;2023-07-20T18:41:38;20.71;49.75
51878;SHT31;37911;51.526;11.536;2023-07-20T18:44:44;20.64;50.87
51878;SHT31;37911;51.526;11.536;2023-07-20T18:47:48;20.54;51.11
51878;SHT31;37911;51.526;11.536;2023-07-20T18:50:53;20.32;51.22
51878;SHT31;37911;51.526;11.536;2023-07-20T18:53:57;20.36;52.42
51878;SHT31;37911;51.526;11.536;2023-07-20T18:57:00;20.17;52.15
51878;SHT31;37911;51.526;11.536;2023-07-20T19:00:07;20.10;53.48
51878;SHT31;37911;51.526;11.536;2023-07-20T19:03:16;20.00;54.05
51878;SHT31;37911;51.526;11.536;2023-07-20T19:06:19;20.00;53.43
51878;SHT31;37911;51.526;11.536;2023-07-20T19:09:23;19.93;54.10
51878;SHT31;37911;51.526;11.536;2023-07-20T19:12:26;19.80;55.44